sensor_id;sensor_type;location;lat;lon;timestamp;pressure;altitude;pressure_sealevel;temperature
78917;BMP280;68315;48.608;11.436;2023-05-10T00:00:34;96600.19;;;14.72
78917;BMP280;68315;48.608;11.436;2023-05-10T00:03:00;96593.31;;;14.64
78917;BMP280;68315;48.608;11.436;2023-05-10T00:05:25;96604.19;;;14.62
78917;BMP280;68315;48.608;11.436;2023-05-10T00:07:50;96593.22;;;14.54
78917;BMP280;68315;48.608;11.436;2023-05-10T00:10:15;96598.94;;;14.56
78917;BMP280;68315;48.608;11.436;2023-05-10T00:12:41;96598.19;;;14.56
78917;BMP280;68315;48.608;11.436;2023-05-10T00:15:07;96603.56;;;14.54
78917;BMP280;68315;48.608;11.436;2023-05-10T00:17:32;96590.44;;;14.54
78917;BMP280;68315;48.608;11.436;2023-05-10T00:19:58;96598.75;;;14.54
78917;BMP280;68315;48.608;11.436;2023-05-10T00:22:23;96600.91;;;14.46
78917;BMP280;68315;48.608;11.436;2023-05-10T00:24:48;96598.44;;;14.50
78917;BMP280;68315;48.608;11.436;2023-05-10T00:27:13;96593.75;;;14.43
78917;BMP280;68315;48.608;11.436;2023-05-10T00:29:39;96588.69;;;14.49
78917;BMP280;68315;48.608;11.436;2023-05-10T00:32:04;96589.00;;;14.53
78917;BMP280;68315;48.608;11.436;2023-05-10T00:34:30;96595.69;;;14.50
78917;BMP280;68315;48.608;11.436;2023-05-10T00:36:55;96585.44;;;14.43
78917;BMP280;68315;48.608;11.436;2023-05-10T00:39:21;96588.06;;;14.41
78917;BMP280;68315;48.608;11.436;2023-05-10T00:41:46;96585.16;;;14.39
78917;BMP280;68315;48.608;11.436;2023-05-10T00:44:11;96581.50;;;14.36
78917;BMP280;68315;48.608;11.436;2023-05-10T00:46:37;96584.31;;;14.46
78917;BMP280;68315;48.608;11.436;2023-05-10T00:49:02;96582.03;;;14.35
78917;BMP280;68315;48.608;11.436;2023-05-10T00:51:28;96578.25;;;14.30
78917;BMP280;68315;48.608;11.436;2023-05-10T00:53:53;96578.66;;;14.27
78917;BMP280;68315;48.608;11.436;2023-05-10T00:56:19;96577.25;;;14.35
78917;BMP280;68315;48.608;11.436;2023-05-10T00:58:48;96569.56;;;14.34
78917;BMP280;68315;48.608;11.436;2023-05-10T01:01:13;96578.00;;;14.36
78917;BMP280;68315;48.608;11.436;2023-05-10T01:03:39;96567.09;;;14.38
78917;BMP280;68315;48.608;11.436;2023-05-10T01:06:05;96575.22;;;14.36
78917;BMP280;68315;48.608;11.436;2023-05-10T01:08:30;96574.91;;;14.32
78917;BMP280;68315;48.608;11.436;2023-05-10T01:10:56;96569.78;;;14.28
78917;BMP280;68315;48.608;11.436;2023-05-10T01:13:37;96573.88;;;14.27
78917;BMP280;68315;48.608;11.436;2023-05-10T01:16:04;96571.66;;;14.26
78917;BMP280;68315;48.608;11.436;2023-05-10T01:18:30;96573.88;;;14.27
78917;BMP280;68315;48.608;11.436;2023-05-10T01:32:24;96576.50;;;14.35
78917;BMP280;68315;48.608;11.436;2023-05-10T01:35:00;96571.72;;;14.35
78917;BMP280;68315;48.608;11.436;2023-05-10T01:37:36;96568.00;;;14.40
78917;BMP280;68315;48.608;11.436;2023-05-10T01:42:51;96570.44;;;14.36
78917;BMP280;68315;48.608;11.436;2023-05-10T01:45:24;96570.84;;;14.33
78917;BMP280;68315;48.608;11.436;2023-05-10T01:48:05;96574.34;;;14.33
78917;BMP280;68315;48.608;11.436;2023-05-10T01:50:32;96574.09;;;14.39
78917;BMP280;68315;48.608;11.436;2023-05-10T01:53:00;96578.88;;;14.38
78917;BMP280;68315;48.608;11.436;2023-05-10T01:55:30;96572.63;;;14.38
78917;BMP280;68315;48.608;11.436;2023-05-10T01:58:04;96571.34;;;14.39
78917;BMP280;68315;48.608;11.436;2023-05-10T02:00:30;96574.09;;;14.39
78917;BMP280;68315;48.608;11.436;2023-05-10T02:02:57;96582.94;;;14.37
78917;BMP280;68315;48.608;11.436;2023-05-10T02:05:22;96576.50;;;14.35
78917;BMP280;68315;48.608;11.436;2023-05-10T02:07:49;96572.63;;;14.38
78917;BMP280;68315;48.608;11.436;2023-05-10T02:10:17;96574.34;;;14.33
78917;BMP280;68315;48.608;11.436;2023-05-10T02:12:45;96579.28;;;14.35
78917;BMP280;68315;48.608;11.436;2023-05-10T02:15:15;96575.09;;;14.34
78917;BMP280;68315;48.608;11.436;2023-05-10T02:17:42;96570.97;;;14.35
78917;BMP280;68315;48.608;11.436;2023-05-10T02:20:09;96574.50;;;14.35
78917;BMP280;68315;48.608;11.436;2023-05-10T02:22:36;96576.84;;;14.39
78917;BMP280;68315;48.608;11.436;2023-05-10T02:25:03;96578.97;;;14.31
78917;BMP280;68315;48.608;11.436;2023-05-10T02:27:29;96572.41;;;14.26
78917;BMP280;68315;48.608;11.436;2023-05-10T02:29:56;96582.41;;;14.22
78917;BMP280;68315;48.608;11.436;2023-05-10T02:32:22;96584.09;;;14.17
78917;BMP280;68315;48.608;11.436;2023-05-10T02:34:48;96583.53;;;14.19
78917;BMP280;68315;48.608;11.436;2023-05-10T02:37:19;96585.03;;;14.20
78917;BMP280;68315;48.608;11.436;2023-05-10T02:39:46;96579.50;;;14.20
78917;BMP280;68315;48.608;11.436;2023-05-10T02:42:16;96587.03;;;14.19
78917;BMP280;68315;48.608;11.436;2023-05-10T02:44:43;96575.81;;;14.17
78917;BMP280;68315;48.608;11.436;2023-05-10T02:47:09;96587.03;;;14.19
78917;BMP280;68315;48.608;11.436;2023-05-10T02:49:34;96577.53;;;14.13
78917;BMP280;68315;48.608;11.436;2023-05-10T02:52:01;96579.75;;;14.14
78917;BMP280;68315;48.608;11.436;2023-05-10T02:54:32;96584.53;;;14.14
78917;BMP280;68315;48.608;11.436;2023-05-10T02:56:59;96578.44;;;14.15
78917;BMP280;68315;48.608;11.436;2023-05-10T02:59:26;96570.41;;;14.10
78917;BMP280;68315;48.608;11.436;2023-05-10T03:01:51;96580.38;;;14.05
78917;BMP280;68315;48.608;11.436;2023-05-10T03:04:16;96577.47;;;14.03
78917;BMP280;68315;48.608;11.436;2023-05-10T03:06:42;96584.84;;;14.01
78917;BMP280;68315;48.608;11.436;2023-05-10T03:09:07;96569.84;;;13.94
78917;BMP280;68315;48.608;11.436;2023-05-10T03:11:55;96587.56;;;13.91
78917;BMP280;68315;48.608;11.436;2023-05-10T03:14:42;96575.69;;;13.98
78917;BMP280;68315;48.608;11.436;2023-05-10T03:17:25;96574.84;;;14.05
78917;BMP280;68315;48.608;11.436;2023-05-10T03:19:58;96583.06;;;13.96
78917;BMP280;68315;48.608;11.436;2023-05-10T03:22:31;96589.50;;;13.98
78917;BMP280;68315;48.608;11.436;2023-05-10T03:24:57;96584.94;;;13.93
78917;BMP280;68315;48.608;11.436;2023-05-10T03:27:25;96584.94;;;13.93
78917;BMP280;68315;48.608;11.436;2023-05-10T03:29:52;96582.56;;;13.90
78917;BMP280;68315;48.608;11.436;2023-05-10T03:32:18;96587.94;;;13.88
78917;BMP280;68315;48.608;11.436;2023-05-10T03:34:43;96589.97;;;13.87
78917;BMP280;68315;48.608;11.436;2023-05-10T03:37:09;96589.41;;;13.89
78917;BMP280;68315;48.608;11.436;2023-05-10T03:39:34;96591.75;;;13.92
78917;BMP280;68315;48.608;11.436;2023-05-10T03:42:00;96593.38;;;13.95
78917;BMP280;68315;48.608;11.436;2023-05-10T03:44:25;96593.72;;;13.99
78917;BMP280;68315;48.608;11.436;2023-05-10T03:46:50;96597.38;;;14.02
78917;BMP280;68315;48.608;11.436;2023-05-10T03:49:16;96595.34;;;14.02
78917;BMP280;68315;48.608;11.436;2023-05-10T03:51:41;96593.31;;;14.03
78917;BMP280;68315;48.608;11.436;2023-05-10T03:54:06;96607.50;;;13.99
78917;BMP280;68315;48.608;11.436;2023-05-10T03:56:32;96596.09;;;14.03
78917;BMP280;68315;48.608;11.436;2023-05-10T03:58:57;96605.81;;;14.04
78917;BMP280;68315;48.608;11.436;2023-05-10T04:01:23;96603.81;;;14.04
78917;BMP280;68315;48.608;11.436;2023-05-10T04:03:51;96606.94;;;14.01
78917;BMP280;68315;48.608;11.436;2023-05-10T04:06:16;96609.94;;;13.95
78917;BMP280;68315;48.608;11.436;2023-05-10T04:08:42;96617.38;;;13.93
78917;BMP280;68315;48.608;11.436;2023-05-10T04:11:08;96619.56;;;13.94
78917;BMP280;68315;48.608;11.436;2023-05-10T04:13:34;96625.97;;;13.97
78917;BMP280;68315;48.608;11.436;2023-05-10T04:16:00;96630.84;;;13.89
78917;BMP280;68315;48.608;11.436;2023-05-10T04:18:25;96623.09;;;13.87
78917;BMP280;68315;48.608;11.436;2023-05-10T04:20:50;96633.09;;;13.83
78917;BMP280;68315;48.608;11.436;2023-05-10T04:23:16;96628.88;;;13.82
78917;BMP280;68315;48.608;11.436;2023-05-10T04:25:42;96633.50;;;13.79
78917;BMP280;68315;48.608;11.436;2023-05-10T04:28:07;96635.53;;;13.79
78917;BMP280;68315;48.608;11.436;2023-05-10T04:30:32;96643.66;;;13.77
78917;BMP280;68315;48.608;11.436;2023-05-10T04:33:03;96639.38;;;13.83
78917;BMP280;68315;48.608;11.436;2023-05-10T04:35:29;96653.66;;;13.72
78917;BMP280;68315;48.608;11.436;2023-05-10T04:37:54;96640.78;;;13.67
78917;BMP280;68315;48.608;11.436;2023-05-10T04:40:20;96641.38;;;13.66
78917;BMP280;68315;48.608;11.436;2023-05-10T04:42:45;96641.38;;;13.66
78917;BMP280;68315;48.608;11.436;2023-05-10T04:45:11;96650.38;;;13.66
78917;BMP280;68315;48.608;11.436;2023-05-10T04:47:36;96648.56;;;13.61
78917;BMP280;68315;48.608;11.436;2023-05-10T04:50:05;96649.72;;;13.58
78917;BMP280;68315;48.608;11.436;2023-05-10T04:52:30;96655.00;;;13.64
78917;BMP280;68315;48.608;11.436;2023-05-10T04:54:55;96658.09;;;13.68
78917;BMP280;68315;48.608;11.436;2023-05-10T04:57:21;96661.81;;;13.63
78917;BMP280;68315;48.608;11.436;2023-05-10T04:59:47;96663.28;;;13.64
78917;BMP280;68315;48.608;11.436;2023-05-10T05:02:12;96668.47;;;13.60
78917;BMP280;68315;48.608;11.436;2023-05-10T05:04:38;96678.03;;;13.59
78917;BMP280;68315;48.608;11.436;2023-05-10T05:07:03;96678.94;;;13.61
78917;BMP280;68315;48.608;11.436;2023-05-10T05:09:28;96684.63;;;13.63
78917;BMP280;68315;48.608;11.436;2023-05-10T05:11:53;96687.72;;;13.67
78917;BMP280;68315;48.608;11.436;2023-05-10T05:14:19;96684.56;;;13.71
78917;BMP280;68315;48.608;11.436;2023-05-10T05:16:46;96688.38;;;13.75
78917;BMP280;68315;48.608;11.436;2023-05-10T05:19:11;96694.34;;;13.72
78917;BMP280;68315;48.608;11.436;2023-05-10T05:21:36;96693.19;;;13.75
78917;BMP280;68315;48.608;11.436;2023-05-10T05:24:02;96696.66;;;13.75
78917;BMP280;68315;48.608;11.436;2023-05-10T05:26:27;96695.25;;;13.74
78917;BMP280;68315;48.608;11.436;2023-05-10T05:28:52;96699.63;;;13.77
78917;BMP280;68315;48.608;11.436;2023-05-10T05:31:19;96701.81;;;13.79
78917;BMP280;68315;48.608;11.436;2023-05-10T05:33:45;96699.22;;;13.81
78917;BMP280;68315;48.608;11.436;2023-05-10T05:36:10;96699.06;;;13.79
78917;BMP280;68315;48.608;11.436;2023-05-10T05:38:35;96707.91;;;13.77
78917;BMP280;68315;48.608;11.436;2023-05-10T05:41:01;96702.94;;;13.76
78917;BMP280;68315;48.608;11.436;2023-05-10T05:43:26;96698.00;;;13.74
78917;BMP280;68315;48.608;11.436;2023-05-10T05:45:52;96712.34;;;13.73
78917;BMP280;68315;48.608;11.436;2023-05-10T05:48:18;96709.03;;;13.74
78917;BMP280;68315;48.608;11.436;2023-05-10T05:50:43;96720.16;;;13.84
78917;BMP280;68315;48.608;11.436;2023-05-10T05:53:09;96723.88;;;13.86
78917;BMP280;68315;48.608;11.436;2023-05-10T05:55:34;96728.44;;;13.84
78917;BMP280;68315;48.608;11.436;2023-05-10T05:57:59;96729.59;;;13.81
78917;BMP280;68315;48.608;11.436;2023-05-10T06:00:24;96735.69;;;13.79
78917;BMP280;68315;48.608;11.436;2023-05-10T06:02:50;96738.44;;;13.79
78917;BMP280;68315;48.608;11.436;2023-05-10T06:05:16;96746.38;;;13.75
78917;BMP280;68315;48.608;11.436;2023-05-10T06:07:41;96745.66;;;13.75
78917;BMP280;68315;48.608;11.436;2023-05-10T06:10:08;96751.69;;;13.81
78917;BMP280;68315;48.608;11.436;2023-05-10T06:12:33;96750.88;;;13.88
78917;BMP280;68315;48.608;11.436;2023-05-10T06:14:59;96752.38;;;13.89
78917;BMP280;68315;48.608;11.436;2023-05-10T06:17:24;96749.88;;;14.00
78917;BMP280;68315;48.608;11.436;2023-05-10T06:19:50;96765.53;;;13.98
78917;BMP280;68315;48.608;11.436;2023-05-10T06:22:15;96766.13;;;13.96
78917;BMP280;68315;48.608;11.436;2023-05-10T06:24:40;96778.78;;;13.99
78917;BMP280;68315;48.608;11.436;2023-05-10T06:27:06;96772.66;;;14.08
78917;BMP280;68315;48.608;11.436;2023-05-10T06:29:32;96775.22;;;14.06
78917;BMP280;68315;48.608;11.436;2023-05-10T06:31:57;96777.75;;;14.12
78917;BMP280;68315;48.608;11.436;2023-05-10T06:34:22;96782.91;;;14.15
78917;BMP280;68315;48.608;11.436;2023-05-10T06:36:48;96785.81;;;14.17
78917;BMP280;68315;48.608;11.436;2023-05-10T06:39:13;96784.66;;;14.28
78917;BMP280;68315;48.608;11.436;2023-05-10T06:41:38;96777.63;;;14.27
78917;BMP280;68315;48.608;11.436;2023-05-10T06:44:03;96777.97;;;14.31
78917;BMP280;68315;48.608;11.436;2023-05-10T06:46:29;96779.38;;;14.39
78917;BMP280;68315;48.608;11.436;2023-05-10T06:48:54;96775.69;;;14.54
78917;BMP280;68315;48.608;11.436;2023-05-10T06:51:20;96777.91;;;14.73
78917;BMP280;68315;48.608;11.436;2023-05-10T06:53:46;96776.34;;;14.79
78917;BMP280;68315;48.608;11.436;2023-05-10T06:56:12;96779.69;;;14.95
78917;BMP280;68315;48.608;11.436;2023-05-10T06:58:37;96786.19;;;15.07
78917;BMP280;68315;48.608;11.436;2023-05-10T07:01:04;96792.91;;;15.13
78917;BMP280;68315;48.608;11.436;2023-05-10T07:03:30;96792.44;;;15.07
78917;BMP280;68315;48.608;11.436;2023-05-10T07:06:00;96785.34;;;15.14
78917;BMP280;68315;48.608;11.436;2023-05-10T07:08:28;96790.75;;;15.21
78917;BMP280;68315;48.608;11.436;2023-05-10T07:11:02;96799.25;;;15.23
78917;BMP280;68315;48.608;11.436;2023-05-10T07:13:29;96788.94;;;15.07
78917;BMP280;68315;48.608;11.436;2023-05-10T07:15:55;96801.69;;;14.93
78917;BMP280;68315;48.608;11.436;2023-05-10T07:18:20;96791.34;;;14.76
78917;BMP280;68315;48.608;11.436;2023-05-10T07:20:45;96791.66;;;14.63
78917;BMP280;68315;48.608;11.436;2023-05-10T07:23:11;96801.69;;;14.59
78917;BMP280;68315;48.608;11.436;2023-05-10T07:25:36;96805.38;;;14.71
78917;BMP280;68315;48.608;11.436;2023-05-10T07:28:01;96803.34;;;14.88
78917;BMP280;68315;48.608;11.436;2023-05-10T07:30:26;96806.84;;;15.06
78917;BMP280;68315;48.608;11.436;2023-05-10T07:32:52;96810.97;;;15.31
78917;BMP280;68315;48.608;11.436;2023-05-10T07:35:17;96805.09;;;15.27
78917;BMP280;68315;48.608;11.436;2023-05-10T07:37:42;96806.44;;;15.26
78917;BMP280;68315;48.608;11.436;2023-05-10T07:40:08;96804.94;;;15.25
78917;BMP280;68315;48.608;11.436;2023-05-10T07:42:33;96797.53;;;15.28
78917;BMP280;68315;48.608;11.436;2023-05-10T07:44:59;96797.59;;;15.37
78917;BMP280;68315;48.608;11.436;2023-05-10T07:47:24;96811.28;;;15.62
78917;BMP280;68315;48.608;11.436;2023-05-10T07:49:49;96809.44;;;15.74
78917;BMP280;68315;48.608;11.436;2023-05-10T07:52:15;96805.53;;;15.87
78917;BMP280;68315;48.608;11.436;2023-05-10T07:54:40;96802.28;;;16.07
78917;BMP280;68315;48.608;11.436;2023-05-10T07:57:05;96812.22;;;16.29
78917;BMP280;68315;48.608;11.436;2023-05-10T07:59:31;96817.09;;;16.38
78917;BMP280;68315;48.608;11.436;2023-05-10T08:01:57;96805.22;;;16.28
78917;BMP280;68315;48.608;11.436;2023-05-10T08:04:22;96804.53;;;16.28
78917;BMP280;68315;48.608;11.436;2023-05-10T08:06:47;96814.25;;;16.29
78917;BMP280;68315;48.608;11.436;2023-05-10T08:09:13;96803.63;;;16.35
78917;BMP280;68315;48.608;11.436;2023-05-10T08:11:38;96816.75;;;16.34
78917;BMP280;68315;48.608;11.436;2023-05-10T08:14:03;96821.34;;;16.59
78917;BMP280;68315;48.608;11.436;2023-05-10T08:16:29;96809.69;;;16.70
78917;BMP280;68315;48.608;11.436;2023-05-10T08:18:54;96812.00;;;16.64
78917;BMP280;68315;48.608;11.436;2023-05-10T08:21:20;96807.88;;;16.55
78917;BMP280;68315;48.608;11.436;2023-05-10T08:23:45;96807.75;;;16.53
78917;BMP280;68315;48.608;11.436;2023-05-10T08:26:11;96809.66;;;16.51
78917;BMP280;68315;48.608;11.436;2023-05-10T08:28:36;96813.28;;;16.43
78917;BMP280;68315;48.608;11.436;2023-05-10T08:31:01;96811.38;;;16.36
78917;BMP280;68315;48.608;11.436;2023-05-10T08:33:27;96815.44;;;16.26
78917;BMP280;68315;48.608;11.436;2023-05-10T08:35:52;96815.25;;;16.14
78917;BMP280;68315;48.608;11.436;2023-05-10T08:38:18;96815.72;;;16.11
78917;BMP280;68315;48.608;11.436;2023-05-10T08:40:44;96820.59;;;16.03
78917;BMP280;68315;48.608;11.436;2023-05-10T08:43:12;96818.72;;;15.96
78917;BMP280;68315;48.608;11.436;2023-05-10T08:45:39;96819.84;;;15.93
78917;BMP280;68315;48.608;11.436;2023-05-10T08:48:06;96831.94;;;15.88
78917;BMP280;68315;48.608;11.436;2023-05-10T08:50:35;96832.63;;;15.79
78917;BMP280;68315;48.608;11.436;2023-05-10T08:53:04;96836.25;;;15.72
78917;BMP280;68315;48.608;11.436;2023-05-10T08:55:29;96842.13;;;15.76
78917;BMP280;68315;48.608;11.436;2023-05-10T08:57:55;96841.16;;;15.64
78917;BMP280;68315;48.608;11.436;2023-05-10T09:00:21;96843.28;;;15.56
78917;BMP280;68315;48.608;11.436;2023-05-10T09:02:49;96837.50;;;15.61
78917;BMP280;68315;48.608;11.436;2023-05-10T09:05:15;96849.41;;;15.81
78917;BMP280;68315;48.608;11.436;2023-05-10T09:07:41;96835.66;;;16.00
78917;BMP280;68315;48.608;11.436;2023-05-10T09:10:08;96830.63;;;16.34
78917;BMP280;68315;48.608;11.436;2023-05-10T09:12:33;96841.06;;;16.72
78917;BMP280;68315;48.608;11.436;2023-05-10T09:15:00;96841.66;;;16.99
78917;BMP280;68315;48.608;11.436;2023-05-10T09:17:27;96839.75;;;16.92
78917;BMP280;68315;48.608;11.436;2023-05-10T09:20:01;96843.72;;;16.89
78917;BMP280;68315;48.608;11.436;2023-05-10T09:22:27;96845.75;;;16.89
78917;BMP280;68315;48.608;11.436;2023-05-10T09:27:35;96842.66;;;16.75
78917;BMP280;68315;48.608;11.436;2023-05-10T09:30:01;96847.47;;;16.65
78917;BMP280;68315;48.608;11.436;2023-05-10T09:32:40;96842.94;;;16.60
78917;BMP280;68315;48.608;11.436;2023-05-10T09:35:10;96839.56;;;16.52
78917;BMP280;68315;48.608;11.436;2023-05-10T09:37:36;96847.31;;;16.54
78917;BMP280;68315;48.608;11.436;2023-05-10T09:40:04;96836.97;;;16.64
78917;BMP280;68315;48.608;11.436;2023-05-10T09:42:29;96842.22;;;16.79
78917;BMP280;68315;48.608;11.436;2023-05-10T09:45:00;96842.06;;;16.96
78917;BMP280;68315;48.608;11.436;2023-05-10T09:47:25;96837.53;;;17.19
78917;BMP280;68315;48.608;11.436;2023-05-10T09:49:52;96846.88;;;17.43
78917;BMP280;68315;48.608;11.436;2023-05-10T09:52:18;96844.47;;;17.68
78917;BMP280;68315;48.608;11.436;2023-05-10T09:54:53;96836.66;;;17.76
78917;BMP280;68315;48.608;11.436;2023-05-10T09:57:23;96841.81;;;18.01
78917;BMP280;68315;48.608;11.436;2023-05-10T09:59:48;96837.31;;;18.17
78917;BMP280;68315;48.608;11.436;2023-05-10T10:02:15;96834.69;;;18.40
78917;BMP280;68315;48.608;11.436;2023-05-10T10:04:41;96828.16;;;18.78
78917;BMP280;68315;48.608;11.436;2023-05-10T10:07:07;96829.56;;;19.00
78917;BMP280;68315;48.608;11.436;2023-05-10T10:09:33;96829.56;;;19.00
78917;BMP280;68315;48.608;11.436;2023-05-10T10:11:59;96827.97;;;18.97
78917;BMP280;68315;48.608;11.436;2023-05-10T10:14:25;96819.69;;;18.87
78917;BMP280;68315;48.608;11.436;2023-05-10T10:16:51;96816.34;;;18.67
78917;BMP280;68315;48.608;11.436;2023-05-10T10:19:18;96820.97;;;18.53
78917;BMP280;68315;48.608;11.436;2023-05-10T10:21:44;96818.41;;;18.46
78917;BMP280;68315;48.608;11.436;2023-05-10T10:24:09;96812.00;;;18.43
78917;BMP280;68315;48.608;11.436;2023-05-10T10:26:35;96819.81;;;18.35
78917;BMP280;68315;48.608;11.436;2023-05-10T10:29:19;96824.28;;;18.19
78917;BMP280;68315;48.608;11.436;2023-05-10T10:31:54;96816.38;;;17.95
78917;BMP280;68315;48.608;11.436;2023-05-10T10:34:28;96817.75;;;17.84
78917;BMP280;68315;48.608;11.436;2023-05-10T10:36:55;96822.63;;;17.74
78917;BMP280;68315;48.608;11.436;2023-05-10T10:39:21;96816.91;;;17.82
78917;BMP280;68315;48.608;11.436;2023-05-10T10:41:51;96825.91;;;17.92
78917;BMP280;68315;48.608;11.436;2023-05-10T10:47:01;96813.19;;;17.89
78917;BMP280;68315;48.608;11.436;2023-05-10T10:49:29;96815.50;;;18.02
78917;BMP280;68315;48.608;11.436;2023-05-10T10:57:27;96810.16;;;17.85
78917;BMP280;68315;48.608;11.436;2023-05-10T11:00:24;96810.16;;;17.85
78917;BMP280;68315;48.608;11.436;2023-05-10T11:03:06;96813.91;;;17.89
78917;BMP280;68315;48.608;11.436;2023-05-10T11:05:40;96816.84;;;17.91
78917;BMP280;68315;48.608;11.436;2023-05-10T11:08:26;96816.25;;;17.93
78917;BMP280;68315;48.608;11.436;2023-05-10T11:13:38;96801.66;;;18.13
78917;BMP280;68315;48.608;11.436;2023-05-10T11:16:21;96802.19;;;18.21
78917;BMP280;68315;48.608;11.436;2023-05-10T11:19:07;96800.41;;;18.47
78917;BMP280;68315;48.608;11.436;2023-05-10T11:21:34;96803.41;;;18.72
78917;BMP280;68315;48.608;11.436;2023-05-10T11:24:00;96801.78;;;18.90
78917;BMP280;68315;48.608;11.436;2023-05-10T11:26:33;96811.53;;;19.01
78917;BMP280;68315;48.608;11.436;2023-05-10T11:28:59;96811.13;;;18.95
78917;BMP280;68315;48.608;11.436;2023-05-10T11:31:26;96810.06;;;19.00
78917;BMP280;68315;48.608;11.436;2023-05-10T11:33:56;96806.91;;;18.94
78917;BMP280;68315;48.608;11.436;2023-05-10T11:36:32;96813.56;;;18.89
78917;BMP280;68315;48.608;11.436;2023-05-10T11:38:58;96813.09;;;18.92
78917;BMP280;68315;48.608;11.436;2023-05-10T11:41:25;96809.69;;;18.94
78917;BMP280;68315;48.608;11.436;2023-05-10T11:43:55;96813.09;;;18.92
78917;BMP280;68315;48.608;11.436;2023-05-10T11:46:22;96815.25;;;18.94
78917;BMP280;68315;48.608;11.436;2023-05-10T11:49:01;96817.56;;;18.97
78917;BMP280;68315;48.608;11.436;2023-05-10T11:51:29;96818.16;;;18.96
78917;BMP280;68315;48.608;11.436;2023-05-10T11:53:56;96816.38;;;19.00
78917;BMP280;68315;48.608;11.436;2023-05-10T11:56:21;96818.06;;;18.94
78917;BMP280;68315;48.608;11.436;2023-05-10T11:58:55;96825.19;;;18.64
78917;BMP280;68315;48.608;11.436;2023-05-10T12:01:22;96827.09;;;18.40
78917;BMP280;68315;48.608;11.436;2023-05-10T12:03:48;96829.25;;;18.21
78917;BMP280;68315;48.608;11.436;2023-05-10T12:06:14;96831.38;;;18.11
78917;BMP280;68315;48.608;11.436;2023-05-10T12:08:44;96830.44;;;17.97
78917;BMP280;68315;48.608;11.436;2023-05-10T12:11:11;96827.78;;;17.99
78917;BMP280;68315;48.608;11.436;2023-05-10T12:13:38;96828.78;;;18.03
78917;BMP280;68315;48.608;11.436;2023-05-10T12:16:18;96836.34;;;18.12
78917;BMP280;68315;48.608;11.436;2023-05-10T12:18:45;96840.59;;;18.13
78917;BMP280;68315;48.608;11.436;2023-05-10T12:21:11;96845.94;;;18.21
78917;BMP280;68315;48.608;11.436;2023-05-10T12:23:37;96839.13;;;18.12
78917;BMP280;68315;48.608;11.436;2023-05-10T12:26:03;96848.31;;;18.24
78917;BMP280;68315;48.608;11.436;2023-05-10T12:28:32;96840.22;;;18.49
78917;BMP280;68315;48.608;11.436;2023-05-10T12:30:59;96840.47;;;18.75
78917;BMP280;68315;48.608;11.436;2023-05-10T12:33:25;96837.56;;;19.05
78917;BMP280;68315;48.608;11.436;2023-05-10T12:35:52;96837.50;;;19.15
78917;BMP280;68315;48.608;11.436;2023-05-10T12:38:25;96836.09;;;19.04
78917;BMP280;68315;48.608;11.436;2023-05-10T12:40:53;96833.22;;;19.02
78917;BMP280;68315;48.608;11.436;2023-05-10T12:43:18;96835.19;;;19.11
78917;BMP280;68315;48.608;11.436;2023-05-10T12:45:43;96839.94;;;19.20
78917;BMP280;68315;48.608;11.436;2023-05-10T12:48:13;96833.00;;;19.21
78917;BMP280;68315;48.608;11.436;2023-05-10T12:50:38;96829.97;;;19.17
78917;BMP280;68315;48.608;11.436;2023-05-10T12:53:03;96836.50;;;19.10
78917;BMP280;68315;48.608;11.436;2023-05-10T12:55:28;96834.38;;;18.99
78917;BMP280;68315;48.608;11.436;2023-05-10T12:57:54;96832.16;;;18.86
78917;BMP280;68315;48.608;11.436;2023-05-10T13:00:19;96840.16;;;18.80
78917;BMP280;68315;48.608;11.436;2023-05-10T13:02:44;96841.94;;;18.76
78917;BMP280;68315;48.608;11.436;2023-05-10T13:05:12;96844.06;;;18.66
78917;BMP280;68315;48.608;11.436;2023-05-10T13:07:38;96842.25;;;18.49
78917;BMP280;68315;48.608;11.436;2023-05-10T13:10:04;96849.94;;;18.18
78917;BMP280;68315;48.608;11.436;2023-05-10T13:12:30;96848.59;;;17.88
78917;BMP280;68315;48.608;11.436;2023-05-10T13:14:55;96848.78;;;17.81
78917;BMP280;68315;48.608;11.436;2023-05-10T13:17:21;96846.75;;;17.72
78917;BMP280;68315;48.608;11.436;2023-05-10T13:19:46;96849.38;;;17.79
78917;BMP280;68315;48.608;11.436;2023-05-10T13:22:11;96849.13;;;17.66
78917;BMP280;68315;48.608;11.436;2023-05-10T13:24:36;96841.56;;;17.57
78917;BMP280;68315;48.608;11.436;2023-05-10T13:27:01;96825.88;;;17.61
78917;BMP280;68315;48.608;11.436;2023-05-10T13:29:27;96839.75;;;17.71
78917;BMP280;68315;48.608;11.436;2023-05-10T13:31:52;96843.66;;;17.87
78917;BMP280;68315;48.608;11.436;2023-05-10T13:34:17;96841.31;;;18.14
78917;BMP280;68315;48.608;11.436;2023-05-10T13:36:45;96843.47;;;18.46
78917;BMP280;68315;48.608;11.436;2023-05-10T13:39:11;96840.72;;;18.79
78917;BMP280;68315;48.608;11.436;2023-05-10T13:41:36;96843.53;;;19.11
78917;BMP280;68315;48.608;11.436;2023-05-10T13:44:02;96839.03;;;19.18
78917;BMP280;68315;48.608;11.436;2023-05-10T13:46:28;96836.84;;;19.05
78917;BMP280;68315;48.608;11.436;2023-05-10T13:48:53;96840.94;;;19.04
78917;BMP280;68315;48.608;11.436;2023-05-10T13:51:19;96846.34;;;19.23
78917;BMP280;68315;48.608;11.436;2023-05-10T13:53:45;96845.03;;;19.47
78917;BMP280;68315;48.608;11.436;2023-05-10T13:56:12;96839.25;;;19.54
78917;BMP280;68315;48.608;11.436;2023-05-10T13:58:37;96833.81;;;19.45
78917;BMP280;68315;48.608;11.436;2023-05-10T14:01:03;96830.75;;;19.29
78917;BMP280;68315;48.608;11.436;2023-05-10T14:03:29;96831.81;;;19.24
78917;BMP280;68315;48.608;11.436;2023-05-10T14:05:55;96833.47;;;19.06
78917;BMP280;68315;48.608;11.436;2023-05-10T14:08:20;96826.63;;;18.65
78917;BMP280;68315;48.608;11.436;2023-05-10T14:10:45;96831.00;;;18.26
78917;BMP280;68315;48.608;11.436;2023-05-10T14:13:11;96830.16;;;17.83
78917;BMP280;68315;48.608;11.436;2023-05-10T14:15:37;96823.72;;;17.50
78917;BMP280;68315;48.608;11.436;2023-05-10T14:18:02;96824.94;;;17.37
78917;BMP280;68315;48.608;11.436;2023-05-10T14:20:27;96835.31;;;17.27
78917;BMP280;68315;48.608;11.436;2023-05-10T14:22:53;96837.69;;;17.12